createdAt,value
2022-09-12T00:01:13.134Z,100949.00
2022-09-12T00:03:40.926Z,100940.69
2022-09-12T00:06:22.912Z,100942.97
2022-09-12T00:08:59.767Z,100949.75
2022-09-12T00:11:28.308Z,100946.75
2022-09-12T00:14:00.692Z,100945.81
2022-09-12T00:16:31.983Z,100946.69
2022-09-12T00:19:00.483Z,100942.66
2022-09-12T00:21:28.889Z,100941.94
2022-09-12T00:23:56.839Z,100940.88
2022-09-12T00:26:24.796Z,100944.63
2022-09-12T00:28:52.578Z,100948.25
2022-09-12T00:31:26.485Z,100947.03
2022-09-12T00:33:57.372Z,100953.84
2022-09-12T00:36:26.820Z,100952.94
2022-09-12T00:38:54.941Z,100945.56
2022-09-12T00:41:27.906Z,100947.38
2022-09-12T00:43:59.879Z,100947.16
2022-09-12T00:46:36.580Z,100951.50
2022-09-12T00:49:16.223Z,100951.78
2022-09-12T00:51:50.603Z,100945.53
2022-09-12T00:54:23.519Z,100947.81
2022-09-12T00:56:56.000Z,100950.34
2022-09-12T00:59:34.756Z,100945.56
2022-09-12T01:02:02.641Z,100942.00
2022-09-12T01:04:30.709Z,100936.13
2022-09-12T01:06:58.834Z,100939.03
2022-09-12T01:09:26.967Z,100940.31
2022-09-12T01:11:55.362Z,100934.44
2022-09-12T01:14:23.098Z,100925.19
2022-09-12T01:16:51.308Z,100930.72
2022-09-12T01:19:24.499Z,100929.25
2022-09-12T01:22:03.700Z,100925.41
2022-09-12T01:24:42.676Z,100926.25
2022-09-12T01:27:18.564Z,100924.84
2022-09-12T01:30:10.699Z,100924.84
2022-09-12T01:32:38.036Z,100914.28
2022-09-12T01:35:23.711Z,100914.69
2022-09-12T01:38:09.299Z,100917.56
2022-09-12T01:41:12.953Z,100920.88
2022-09-12T01:44:06.639Z,100913.50
2022-09-12T01:46:49.245Z,100905.25
2022-09-12T01:49:29.525Z,100915.06
2022-09-12T01:52:21.584Z,100909.06
2022-09-12T01:54:59.410Z,100909.94
2022-09-12T01:57:43.701Z,100907.50
2022-09-12T02:00:12.644Z,100905.41
2022-09-12T02:02:54.729Z,100905.94
2022-09-12T02:05:22.178Z,100904.09
2022-09-12T02:08:01.378Z,100901.09
2022-09-12T02:10:37.706Z,100904.38
2022-09-12T02:13:15.909Z,100904.66
2022-09-12T02:15:53.044Z,100906.06
2022-09-12T02:18:21.700Z,100909.31
2022-09-12T02:20:51.715Z,100912.63
2022-09-12T02:23:30.918Z,100913.31
2022-09-12T02:26:05.984Z,100903.38
2022-09-12T02:28:38.173Z,100905.66
2022-09-12T02:31:08.929Z,100902.22
2022-09-12T02:33:49.278Z,100899.09
2022-09-12T02:36:40.692Z,100888.56
2022-09-12T02:39:08.476Z,100893.81
2022-09-12T02:41:36.447Z,100893.25
2022-09-12T02:44:05.687Z,100888.41
2022-09-12T02:46:44.138Z,100892.72
2022-09-12T02:49:11.835Z,100894.41
2022-09-12T02:51:40.601Z,100896.13
2022-09-12T02:54:10.058Z,100884.47
2022-09-12T02:56:42.165Z,100894.44
2022-09-12T02:59:12.777Z,100897.81
2022-09-12T03:01:55.134Z,100892.41
2022-09-12T03:04:31.538Z,100888.88
2022-09-12T03:07:10.260Z,100893.28
2022-09-12T03:09:51.662Z,100887.31
2022-09-12T03:12:42.407Z,100894.25
2022-09-12T03:15:31.682Z,100898.09
2022-09-12T03:18:06.262Z,100893.28
2022-09-12T03:20:53.563Z,100895.25
2022-09-12T03:23:30.382Z,100894.69
2022-09-12T03:26:06.077Z,100888.16
2022-09-12T03:28:35.701Z,100893.53
2022-09-12T03:31:13.729Z,100883.16
2022-09-12T03:33:41.306Z,100885.88
2022-09-12T03:36:24.247Z,100882.75
2022-09-12T03:38:52.447Z,100893.84
2022-09-12T03:41:20.781Z,100888.88
2022-09-12T03:43:48.444Z,100895.84
2022-09-12T03:46:16.092Z,100884.31
2022-09-12T03:48:43.836Z,100886.41
2022-09-12T03:51:11.612Z,100889.44
2022-09-12T03:53:39.050Z,100893.56
2022-09-12T03:56:08.648Z,100893.69
2022-09-12T03:58:36.954Z,100886.44
2022-09-12T04:01:14.460Z,100881.31
2022-09-12T04:03:44.012Z,100882.19
2022-09-12T04:06:14.811Z,100880.75
2022-09-12T04:08:44.007Z,100880.19
2022-09-12T04:11:15.705Z,100881.31
2022-09-12T04:13:45.005Z,100885.16
2022-09-12T04:16:14.640Z,100886.44
2022-09-12T04:18:42.386Z,100881.59
2022-09-12T04:21:16.579Z,100888.00
2022-09-12T04:23:44.634Z,100882.41
2022-09-12T04:26:13.823Z,100892.84
2022-09-12T04:28:42.241Z,100895.50
2022-09-12T04:31:18.548Z,100881.69
2022-09-12T04:33:46.681Z,100879.53
2022-09-12T04:36:17.491Z,100888.72
2022-09-12T04:38:47.225Z,100884.44
2022-09-12T04:41:17.254Z,100884.72
2022-09-12T04:43:49.012Z,100894.53
2022-09-12T04:46:19.969Z,100901.25
2022-09-12T04:48:49.803Z,100899.25
2022-09-12T04:51:31.015Z,100891.00
2022-09-12T04:54:01.587Z,100894.97
2022-09-12T04:56:30.373Z,100896.94
2022-09-12T04:58:59.371Z,100902.81
2022-09-12T05:01:28.274Z,100902.41
2022-09-12T05:03:56.502Z,100902.81
2022-09-12T05:06:27.246Z,100909.22
2022-09-12T05:08:56.520Z,100903.09
2022-09-12T05:11:46.755Z,100905.38
2022-09-12T05:14:17.387Z,100914.63
2022-09-12T05:16:49.185Z,100917.19
2022-09-12T05:19:17.740Z,100915.75
2022-09-12T05:21:45.260Z,100918.78
2022-09-12T05:24:12.898Z,100921.31
2022-09-12T05:26:40.425Z,100922.75
2022-09-12T05:29:08.028Z,100926.31
2022-09-12T05:31:35.812Z,100931.16
2022-09-12T05:34:09.174Z,100934.53
2022-09-12T05:36:39.907Z,100938.56
2022-09-12T05:39:07.428Z,100928.28
2022-09-12T05:41:36.072Z,100932.84
2022-09-12T05:44:05.667Z,100931.97
2022-09-12T05:46:39.298Z,100936.72
2022-09-12T05:49:08.150Z,100937.13
2022-09-12T05:51:41.504Z,100945.38
2022-09-12T05:54:10.123Z,100953.59
2022-09-12T05:56:39.652Z,100953.94
2022-09-12T05:59:13.071Z,100947.22
2022-09-12T06:01:41.064Z,100951.81
2022-09-12T06:04:09.331Z,100952.97
2022-09-12T06:06:41.535Z,100958.75
2022-09-12T06:09:10.045Z,100956.59
2022-09-12T06:11:40.791Z,100948.22
2022-09-12T06:14:10.040Z,100953.56
2022-09-12T06:16:38.322Z,100954.25
2022-09-12T06:19:08.399Z,100947.75
2022-09-12T06:21:35.964Z,100952.63
2022-09-12T06:24:03.565Z,100956.03
2022-09-12T06:26:31.317Z,100950.56
2022-09-12T06:29:00.814Z,100956.66
2022-09-12T06:31:31.666Z,100950.19
2022-09-12T06:34:04.928Z,100945.66
2022-09-12T06:36:36.382Z,100946.19
2022-09-12T06:39:07.802Z,100949.94
2022-09-12T06:41:35.410Z,100948.31
2022-09-12T06:44:03.536Z,100944.69
2022-09-12T06:46:31.305Z,100941.44
2022-09-12T06:49:00.612Z,100938.94
2022-09-12T06:51:29.236Z,100936.31
2022-09-12T06:53:57.678Z,100948.00
2022-09-12T06:56:27.236Z,100941.59
2022-09-12T06:58:57.416Z,100939.25
2022-09-12T07:01:27.169Z,100940.72
2022-09-12T07:04:00.207Z,100932.25
2022-09-12T07:06:32.031Z,100939.75
2022-09-12T07:09:01.183Z,100938.09
2022-09-12T07:11:34.126Z,100939.38
2022-09-12T07:14:04.059Z,100932.56
2022-09-12T07:16:31.995Z,100941.00
2022-09-12T07:19:01.515Z,100935.78
2022-09-12T07:21:29.808Z,100933.16
2022-09-12T07:23:58.289Z,100940.06
2022-09-12T07:26:28.075Z,100943.53
2022-09-12T07:29:12.826Z,100941.81
2022-09-12T07:31:45.190Z,100944.69
2022-09-12T07:34:12.913Z,100941.09
2022-09-12T07:36:40.294Z,100940.88
2022-09-12T07:39:07.574Z,100937.81
2022-09-12T07:41:35.135Z,100937.22
2022-09-12T07:44:04.032Z,100934.63
2022-09-12T07:46:32.006Z,100936.22
2022-09-12T07:49:00.853Z,100936.13
2022-09-12T07:51:30.276Z,100951.63
2022-09-12T07:53:57.990Z,100943.06
2022-09-12T07:56:30.211Z,100954.19
2022-09-12T07:58:58.967Z,100945.13
2022-09-12T08:01:26.895Z,100940.75
2022-09-12T08:03:57.327Z,100941.75
2022-09-12T08:06:26.818Z,100948.06
2022-09-12T08:08:56.430Z,100952.16
2022-09-12T08:11:25.565Z,100953.84
2022-09-12T08:13:55.832Z,100952.47
2022-09-12T08:16:26.244Z,100949.41
2022-09-12T08:18:53.673Z,100950.75
2022-09-12T08:21:26.304Z,100944.47
2022-09-12T08:23:56.331Z,100961.97
2022-09-12T08:26:24.830Z,100952.97
2022-09-12T08:28:53.990Z,100953.13
2022-09-12T08:31:23.045Z,100959.97
2022-09-12T08:33:51.073Z,100952.78
2022-09-12T08:36:24.267Z,100954.13
2022-09-12T08:39:00.024Z,100957.41
2022-09-12T08:41:35.086Z,100953.97
2022-09-12T08:44:17.676Z,100954.66
2022-09-12T08:47:06.540Z,100952.56
2022-09-12T08:49:40.926Z,100955.13
2022-09-12T08:52:15.657Z,100950.25
2022-09-12T08:54:45.443Z,100946.44
2022-09-12T08:57:15.220Z,100951.31
2022-09-12T08:59:44.916Z,100954.69
2022-09-12T09:02:46.390Z,100955.97
2022-09-12T09:05:27.842Z,100961.16
2022-09-12T09:08:21.984Z,100955.09
2022-09-12T09:11:04.525Z,100952.06
2022-09-12T09:14:05.389Z,100961.56
2022-09-12T09:16:42.836Z,100958.31
2022-09-12T09:19:21.090Z,100950.84
2022-09-12T09:21:54.786Z,100953.25
2022-09-12T09:24:27.226Z,100949.78
2022-09-12T09:27:23.642Z,100934.50
2022-09-12T09:29:56.069Z,100941.03
2022-09-12T09:32:38.201Z,100947.13
2022-09-12T09:35:37.976Z,100951.56
2022-09-12T09:38:21.276Z,100950.00
2022-09-12T09:41:24.030Z,100939.13
2022-09-12T09:43:51.643Z,100941.94
2022-09-12T09:46:19.350Z,100948.25
2022-09-12T09:48:50.279Z,100959.91
2022-09-12T09:51:26.158Z,100942.16
2022-09-12T09:54:02.713Z,100941.47
2022-09-12T09:56:34.615Z,100942.91
2022-09-12T09:59:27.184Z,100949.41
2022-09-12T10:02:05.886Z,100952.00
2022-09-12T10:04:41.563Z,100949.22
2022-09-12T10:07:24.723Z,100945.94
2022-09-12T10:10:17.290Z,100941.72
2022-09-12T10:12:45.669Z,100944.03
2022-09-12T10:15:21.920Z,100952.81
2022-09-12T10:17:51.165Z,100948.97
2022-09-12T10:20:37.375Z,100950.22
2022-09-12T10:23:37.916Z,100947.41
2022-09-12T10:26:11.110Z,100944.59
2022-09-12T10:28:40.112Z,100940.44
2022-09-12T10:31:15.689Z,100939.00
2022-09-12T10:34:02.358Z,100939.56
2022-09-12T10:36:39.889Z,100937.88
2022-09-12T10:39:17.854Z,100938.50
2022-09-12T10:41:46.639Z,100935.81
2022-09-12T10:44:26.119Z,100933.09
2022-09-12T10:46:54.828Z,100930.34
2022-09-12T10:49:29.270Z,100927.78
2022-09-12T10:52:16.688Z,100924.47
2022-09-12T10:54:45.507Z,100923.31
2022-09-12T10:57:51.207Z,100912.72
2022-09-12T11:00:27.419Z,100906.16
2022-09-12T11:02:59.485Z,100908.84
2022-09-12T11:05:36.773Z,100905.06
2022-09-12T11:08:18.913Z,100906.84
2022-09-12T11:11:09.920Z,100906.72
2022-09-12T11:13:49.122Z,100915.13
2022-09-12T11:16:41.075Z,100899.84
2022-09-12T11:19:29.258Z,100902.31
2022-09-12T11:22:18.221Z,100903.00
2022-09-12T11:25:29.094Z,100896.47
2022-09-12T11:28:17.920Z,100896.09
2022-09-12T11:31:09.614Z,100889.78
2022-09-12T11:33:42.961Z,100895.06
2022-09-12T11:36:33.226Z,100894.50
2022-09-12T11:39:14.994Z,100887.59
2022-09-12T11:41:48.432Z,100897.47
2022-09-12T11:44:24.533Z,100894.78
2022-09-12T11:46:52.420Z,100893.47
2022-09-12T11:49:39.984Z,100884.13
2022-09-12T11:52:15.884Z,100883.22
2022-09-12T11:54:52.925Z,100876.06
2022-09-12T11:57:35.284Z,100871.03
2022-09-12T12:00:19.663Z,100871.84
2022-09-12T12:03:09.426Z,100866.22
2022-09-12T12:05:57.937Z,100866.38
2022-09-12T12:08:27.669Z,100863.19
2022-09-12T12:10:56.455Z,100864.91
2022-09-12T12:13:29.922Z,100860.88
2022-09-12T12:16:05.667Z,100854.25
2022-09-12T12:18:36.963Z,100864.69
2022-09-12T12:21:29.376Z,100853.28
2022-09-12T12:24:08.696Z,100855.06
2022-09-12T12:26:39.103Z,100852.88
2022-09-12T12:29:10.063Z,100849.34
2022-09-12T12:32:02.158Z,100847.03
2022-09-12T12:34:43.120Z,100841.41
2022-09-12T12:37:42.934Z,100839.88
2022-09-12T12:40:23.025Z,100839.22
2022-09-12T12:42:50.977Z,100833.56
2022-09-12T12:45:18.510Z,100842.19
2022-09-12T12:47:49.545Z,100836.63
2022-09-12T12:50:17.193Z,100831.84
2022-09-12T12:52:58.890Z,100830.91
2022-09-12T12:55:39.136Z,100823.47
2022-09-12T12:58:22.333Z,100821.38
2022-09-12T13:01:16.066Z,100827.69
2022-09-12T13:04:11.559Z,100821.31
2022-09-12T13:06:42.802Z,100816.50
2022-09-12T13:09:22.250Z,100816.59
2022-09-12T13:12:00.857Z,100809.78
2022-09-12T13:14:43.182Z,100803.78
2022-09-12T13:17:26.066Z,100805.50
2022-09-12T13:20:26.131Z,100803.22
2022-09-12T13:22:52.135Z,100802.13
2022-09-12T13:25:34.330Z,100792.81
2022-09-12T13:28:04.021Z,100798.44
2022-09-12T13:30:34.464Z,100802.03
2022-09-12T13:33:23.021Z,100792.34
2022-09-12T13:36:02.140Z,100789.38
2022-09-12T13:38:38.698Z,100784.09
2022-09-12T13:41:21.359Z,100786.19
2022-09-12T13:43:49.670Z,100772.00
2022-09-12T13:46:28.326Z,100774.53
2022-09-12T13:48:58.631Z,100769.00
2022-09-12T13:51:31.502Z,100764.94
2022-09-12T13:54:05.217Z,100768.31
2022-09-12T13:56:32.622Z,100765.66
2022-09-12T13:59:02.510Z,100761.00
2022-09-12T14:01:40.245Z,100755.31
2022-09-12T14:04:45.567Z,100759.75
2022-09-12T14:07:17.523Z,100750.19
2022-09-12T14:09:52.561Z,100752.97
2022-09-12T14:12:26.462Z,100746.19
2022-09-12T14:14:54.352Z,100742.50
2022-09-12T14:17:29.863Z,100742.00
2022-09-12T14:20:03.465Z,100740.03
2022-09-12T14:22:32.614Z,100735.78
2022-09-12T14:25:02.003Z,100735.81
2022-09-12T14:27:37.662Z,100732.13
2022-09-12T14:30:09.218Z,100732.16
2022-09-12T14:32:36.994Z,100726.53
2022-09-12T14:35:18.694Z,100722.91
2022-09-12T14:37:49.796Z,100709.84
2022-09-12T14:40:21.105Z,100715.69
2022-09-12T14:42:50.875Z,100717.22
2022-09-12T14:45:29.284Z,100716.88
2022-09-12T14:47:58.722Z,100719.66
2022-09-12T14:50:29.776Z,100711.84
2022-09-12T14:53:21.033Z,100710.16
2022-09-12T14:56:05.363Z,100711.03
2022-09-12T14:58:33.547Z,100705.53
2022-09-12T15:01:07.223Z,100698.50
2022-09-12T15:03:52.019Z,100700.34
2022-09-12T15:06:37.883Z,100699.94
2022-09-12T15:09:13.574Z,100694.81
2022-09-12T15:11:41.104Z,100695.44
2022-09-12T15:14:15.461Z,100697.25
2022-09-12T15:16:43.048Z,100701.63
2022-09-12T15:19:10.589Z,100699.00
2022-09-12T15:21:37.956Z,100698.25
2022-09-12T15:24:05.801Z,100693.47
2022-09-12T15:26:33.360Z,100697.19
2022-09-12T15:29:01.059Z,100688.63
2022-09-12T15:31:32.638Z,100686.69
2022-09-12T15:34:02.145Z,100688.16
2022-09-12T15:36:29.925Z,100686.75
2022-09-12T15:38:57.813Z,100689.13
2022-09-12T15:41:31.345Z,100689.78
2022-09-12T15:43:59.087Z,100692.16
2022-09-12T15:46:26.542Z,100696.78
2022-09-12T15:48:54.005Z,100685.50
2022-09-12T15:51:22.346Z,100680.16
2022-09-12T15:53:50.925Z,100686.78
2022-09-12T15:56:20.164Z,100679.78
2022-09-12T15:58:58.220Z,100674.47
2022-09-12T16:01:28.137Z,100671.88
2022-09-12T16:03:55.904Z,100676.72
2022-09-12T16:06:24.085Z,100670.03
2022-09-12T16:08:51.525Z,100664.78
2022-09-12T16:11:24.649Z,100672.13
2022-09-12T16:13:53.857Z,100667.94
2022-09-12T16:16:21.590Z,100659.41
2022-09-12T16:18:49.233Z,100665.91
2022-09-12T16:21:16.898Z,100663.59
2022-09-12T16:23:45.595Z,100661.31
2022-09-12T16:26:13.451Z,100663.47
2022-09-12T16:28:41.033Z,100654.78
2022-09-12T16:31:11.781Z,100660.38
2022-09-12T16:33:40.412Z,100657.53
2022-09-12T16:36:10.904Z,100660.25
2022-09-12T16:38:52.954Z,100659.34
2022-09-12T16:41:22.470Z,100654.97
2022-09-12T16:43:49.964Z,100657.91
2022-09-12T16:46:22.782Z,100653.03
2022-09-12T16:48:53.462Z,100655.31
2022-09-12T16:51:24.056Z,100662.34
2022-09-12T16:53:52.657Z,100653.28
2022-09-12T16:56:20.672Z,100660.25
2022-09-12T16:58:49.188Z,100658.88
2022-09-12T17:01:22.151Z,100658.25
2022-09-12T17:03:53.634Z,100655.81
2022-09-12T17:06:21.975Z,100666.84
2022-09-12T17:08:51.463Z,100651.34
2022-09-12T17:11:21.908Z,100655.97
2022-09-12T17:14:09.979Z,100655.06
2022-09-12T17:16:39.996Z,100663.06
2022-09-12T17:19:08.588Z,100652.56
2022-09-12T17:21:36.468Z,100658.19
2022-09-12T17:24:04.107Z,100663.16
2022-09-12T17:26:31.988Z,100666.78
2022-09-12T17:29:00.146Z,100665.75
2022-09-12T17:31:27.984Z,100667.94
2022-09-12T17:33:57.045Z,100676.69
2022-09-12T17:36:24.769Z,100682.44
2022-09-12T17:38:54.572Z,100684.81
2022-09-12T17:41:25.254Z,100681.75
2022-09-12T17:43:56.780Z,100676.53
2022-09-12T17:46:29.812Z,100675.88
2022-09-12T17:48:58.505Z,100670.28
2022-09-12T17:51:29.199Z,100672.00
2022-09-12T17:54:16.798Z,100679.75
2022-09-12T17:56:52.236Z,100687.28
2022-09-12T17:59:23.996Z,100685.72
2022-09-12T18:02:10.506Z,100687.59
2022-09-12T18:04:38.836Z,100700.69
2022-09-12T18:07:06.832Z,100692.13
2022-09-12T18:09:34.386Z,100701.25
2022-09-12T18:12:05.794Z,100701.19
2022-09-12T18:14:33.366Z,100710.28
2022-09-12T18:17:01.842Z,100707.00
2022-09-12T18:19:29.496Z,100713.06
2022-09-12T18:21:57.221Z,100719.13
2022-09-12T18:24:25.036Z,100724.84
2022-09-12T18:26:52.604Z,100727.66
2022-09-12T18:29:20.680Z,100721.84
2022-09-12T18:31:49.048Z,100731.31
2022-09-12T18:34:17.570Z,100730.63
2022-09-12T18:36:47.833Z,100728.00
2022-09-12T18:39:16.477Z,100736.03
2022-09-12T18:41:44.493Z,100743.53
2022-09-12T18:44:12.763Z,100736.88
2022-09-12T18:46:40.408Z,100733.63
2022-09-12T18:49:09.445Z,100743.22
2022-09-12T18:51:37.564Z,100744.16
2022-09-12T18:54:08.763Z,100749.19
2022-09-12T18:56:38.459Z,100752.31
2022-09-12T18:59:07.342Z,100743.56
2022-09-12T19:01:37.283Z,100756.09
2022-09-12T19:04:05.784Z,100757.09
2022-09-12T19:06:36.682Z,100758.63
2022-09-12T19:09:08.041Z,100755.22
2022-09-12T19:11:38.649Z,100753.72
2022-09-12T19:14:07.341Z,100764.47
2022-09-12T19:16:38.425Z,100758.66
2022-09-12T19:19:07.678Z,100761.38
2022-09-12T19:21:38.704Z,100760.81
2022-09-12T19:24:10.364Z,100765.47
2022-09-12T19:26:40.174Z,100764.81
2022-09-12T19:29:08.935Z,100769.06
2022-09-12T19:31:36.696Z,100766.22
2022-09-12T19:34:06.861Z,100762.31
2022-09-12T19:36:47.470Z,100759.91
2022-09-12T19:39:17.582Z,100759.59
2022-09-12T19:41:45.729Z,100761.09
2022-09-12T19:44:13.775Z,100767.56
2022-09-12T19:46:41.798Z,100771.47
2022-09-12T19:49:10.751Z,100761.13
2022-09-12T19:51:38.590Z,100760.41
2022-09-12T19:54:06.327Z,100768.19
2022-09-12T19:56:34.034Z,100767.25
2022-09-12T19:59:01.542Z,100782.59
2022-09-12T20:01:29.341Z,100789.94
2022-09-12T20:03:58.206Z,100795.22
2022-09-12T20:06:26.768Z,100789.84
2022-09-12T20:08:55.092Z,100790.97
2022-09-12T20:11:24.448Z,100808.81
2022-09-12T20:13:52.703Z,100800.28
2022-09-12T20:16:25.801Z,100798.75
2022-09-12T20:18:54.678Z,100799.09
2022-09-12T20:21:25.495Z,100797.25
2022-09-12T20:23:53.112Z,100801.88
2022-09-12T20:26:20.775Z,100799.16
2022-09-12T20:28:48.638Z,100811.72
2022-09-12T20:31:16.607Z,100809.84
2022-09-12T20:33:46.616Z,100809.84
2022-09-12T20:36:18.797Z,100811.53
2022-09-12T20:38:51.953Z,100816.13
2022-09-12T20:41:21.010Z,100809.50
2022-09-12T20:43:52.462Z,100813.41
2022-09-12T20:46:22.192Z,100807.63
2022-09-12T20:48:51.461Z,100800.84
2022-09-12T20:51:20.294Z,100805.78
2022-09-12T20:53:48.571Z,100813.59
2022-09-12T20:56:16.396Z,100807.97
2022-09-12T20:58:44.777Z,100822.59
2022-09-12T21:01:14.148Z,100818.19
2022-09-12T21:03:43.722Z,100821.44
2022-09-12T21:06:12.734Z,100816.31
2022-09-12T21:08:40.662Z,100821.91
2022-09-12T21:11:08.639Z,100820.41
2022-09-12T21:13:37.011Z,100812.56
2022-09-12T21:16:11.415Z,100814.44
2022-09-12T21:18:39.391Z,100812.75
2022-09-12T21:21:07.504Z,100827.53
2022-09-12T21:23:34.880Z,100821.06
2022-09-12T21:26:03.042Z,100820.75
2022-09-12T21:28:31.107Z,100818.03
2022-09-12T21:30:58.512Z,100818.19
2022-09-12T21:33:26.555Z,100822.28
2022-09-12T21:35:53.915Z,100822.28
2022-09-12T21:38:21.729Z,100825.13
2022-09-12T21:40:49.483Z,100822.16
2022-09-12T21:43:16.921Z,100822.94
2022-09-12T21:45:44.559Z,100824.31
2022-09-12T21:48:12.246Z,100826.19
2022-09-12T21:50:39.763Z,100826.69
2022-09-12T21:53:07.639Z,100818.72
2022-09-12T21:55:35.189Z,100822.75
2022-09-12T21:58:02.653Z,100810.88
2022-09-12T22:00:30.310Z,100824.28
2022-09-12T22:02:59.231Z,100822.63
2022-09-12T22:05:29.887Z,100825.84
2022-09-12T22:07:57.485Z,100816.66
2022-09-12T22:10:25.137Z,100825.34
2022-09-12T22:12:52.910Z,100823.66
2022-09-12T22:15:40.177Z,100820.41
2022-09-12T22:18:08.047Z,100821.06
2022-09-12T22:20:35.565Z,100820.22
2022-09-12T22:23:24.793Z,100816.63
2022-09-12T22:25:56.071Z,100813.94
2022-09-12T22:28:25.125Z,100811.03
2022-09-12T22:30:54.377Z,100801.34
2022-09-12T22:33:22.079Z,100809.94
2022-09-12T22:35:49.389Z,100809.16
2022-09-12T22:38:16.833Z,100805.91
2022-09-12T22:40:44.195Z,100801.28
2022-09-12T22:43:11.918Z,100804.66
2022-09-12T22:45:42.372Z,100800.59
2022-09-12T22:48:09.986Z,100798.38
2022-09-12T22:50:37.479Z,100801.44
2022-09-12T22:53:05.024Z,100807.91
2022-09-12T22:55:32.646Z,100806.00
2022-09-12T22:58:00.139Z,100803.94
2022-09-12T23:00:30.491Z,100804.31
2022-09-12T23:02:58.426Z,100805.00
2022-09-12T23:05:25.910Z,100797.00
2022-09-12T23:07:53.349Z,100803.63
2022-09-12T23:10:20.792Z,100797.63
2022-09-12T23:12:48.115Z,100800.69
2022-09-12T23:15:15.769Z,100802.69
2022-09-12T23:17:43.220Z,100802.44
2022-09-12T23:20:10.916Z,100797.66
2022-09-12T23:22:38.452Z,100798.13
2022-09-12T23:25:06.415Z,100798.50
2022-09-12T23:27:34.933Z,100807.06
2022-09-12T23:30:02.774Z,100804.16
2022-09-12T23:32:30.329Z,100802.94
2022-09-12T23:34:59.012Z,100797.81
2022-09-12T23:37:27.004Z,100800.09
2022-09-12T23:39:54.508Z,100791.91
2022-09-12T23:42:22.288Z,100797.81
2022-09-12T23:44:49.671Z,100795.06
2022-09-12T23:47:17.635Z,100791.28
2022-09-12T23:49:45.879Z,100790.25
2022-09-12T23:52:13.346Z,100788.53
2022-09-12T23:54:40.826Z,100786.34
2022-09-12T23:57:08.312Z,100788.59
2022-09-12T23:59:35.922Z,100784.19
